createdAt,value
2023-05-18T00:00:40.289Z,9.719274
2023-05-18T00:01:40.253Z,9.719190
2023-05-18T00:02:40.327Z,9.719149
2023-05-18T00:03:40.502Z,9.719208
2023-05-18T00:04:40.319Z,9.719187
2023-05-18T00:05:40.225Z,9.719243
2023-05-18T00:06:40.202Z,9.719247
2023-05-18T00:07:40.264Z,9.719393
2023-05-18T00:08:40.238Z,9.719164
2023-05-18T00:09:40.190Z,9.719290
2023-05-18T00:10:40.168Z,9.719470
2023-05-18T00:11:40.155Z,9.719422
2023-05-18T00:12:40.158Z,9.719486
2023-05-18T00:13:40.196Z,9.718706
2023-05-18T00:14:40.132Z,9.719056
2023-05-18T00:15:40.125Z,9.719199
2023-05-18T00:16:40.738Z,9.719653
2023-05-18T00:17:40.172Z,9.719286
2023-05-18T00:18:40.119Z,9.719407
2023-05-18T00:19:40.070Z,9.719452
2023-05-18T00:20:40.093Z,9.719432
2023-05-18T00:21:40.060Z,9.719290
2023-05-18T00:22:40.061Z,9.719293
2023-05-18T00:23:40.048Z,9.719167
2023-05-18T00:24:40.028Z,9.719290
2023-05-18T00:25:40.043Z,9.719230
2023-05-18T00:26:40.020Z,9.719131
2023-05-18T00:27:40.008Z,9.719120
2023-05-18T00:28:40.013Z,9.719155
2023-05-18T00:29:39.987Z,9.718963
2023-05-18T00:30:39.972Z,9.719014
2023-05-18T00:31:40.031Z,9.719007
2023-05-18T00:32:40.021Z,9.719047
2023-05-18T00:33:39.952Z,9.719119
2023-05-18T00:34:40.016Z,9.719065
2023-05-18T00:35:39.929Z,9.719127
2023-05-18T00:36:39.930Z,9.719133
2023-05-18T00:37:39.903Z,9.719113
2023-05-18T00:38:39.917Z,9.719074
2023-05-18T00:39:39.890Z,9.719088
2023-05-18T00:40:39.882Z,9.719167
2023-05-18T00:41:39.909Z,9.719129
2023-05-18T00:42:39.865Z,9.719154
2023-05-18T00:43:39.871Z,9.719177
2023-05-18T00:44:39.857Z,9.719175
2023-05-18T00:45:39.905Z,9.719139
2023-05-18T00:46:39.825Z,9.719099
2023-05-18T00:47:39.852Z,9.719110
2023-05-18T00:48:39.803Z,9.719093
2023-05-18T00:49:39.891Z,9.719174
2023-05-18T00:50:39.777Z,9.719220
2023-05-18T00:51:39.766Z,9.719191
2023-05-18T00:52:39.764Z,9.719192
2023-05-18T00:53:40.646Z,9.719095
2023-05-18T00:54:39.760Z,9.719098
2023-05-18T00:55:39.738Z,9.719209
2023-05-18T00:56:39.743Z,9.719189
2023-05-18T00:57:39.714Z,9.719156
2023-05-18T00:58:39.720Z,9.719129
2023-05-18T00:59:39.712Z,9.719188
2023-05-18T01:00:39.710Z,9.719220
2023-05-18T01:01:39.745Z,9.719265
2023-05-18T01:02:39.762Z,9.719275
2023-05-18T01:03:39.704Z,9.719273
2023-05-18T01:04:39.744Z,9.719214
2023-05-18T01:05:39.644Z,9.719250
2023-05-18T01:06:39.650Z,9.719234
2023-05-18T01:07:39.660Z,9.719299
2023-05-18T01:08:39.602Z,9.719441
2023-05-18T01:09:39.591Z,9.719334
2023-05-18T01:10:39.639Z,9.719265
2023-05-18T01:11:39.618Z,9.719136
2023-05-18T01:12:39.582Z,9.719188
2023-05-18T01:13:39.554Z,9.719104
2023-05-18T01:14:39.559Z,9.719077
2023-05-18T01:15:39.547Z,9.719154
2023-05-18T01:16:39.569Z,9.719316
2023-05-18T01:17:39.560Z,9.719191
2023-05-18T01:18:39.529Z,9.719177
2023-05-18T01:19:39.598Z,9.719240
2023-05-18T01:20:39.493Z,9.719213
2023-05-18T01:21:39.547Z,9.719213
2023-05-18T01:22:39.457Z,9.719206
2023-05-18T01:23:39.469Z,9.719219
2023-05-18T01:24:39.471Z,9.719164
2023-05-18T01:25:39.482Z,9.719209
2023-05-18T01:26:39.448Z,9.719146
2023-05-18T01:27:39.412Z,9.719193
2023-05-18T01:28:39.420Z,9.719247
2023-05-18T01:29:39.401Z,9.719354
2023-05-18T01:30:39.429Z,9.719495
2023-05-18T01:31:39.451Z,9.719315
2023-05-18T01:32:39.389Z,9.719347
2023-05-18T01:33:39.377Z,9.719254
2023-05-18T01:34:39.414Z,9.719338
2023-05-18T01:35:39.352Z,9.719379
2023-05-18T01:36:39.336Z,9.719309
2023-05-18T01:37:39.328Z,9.719264
2023-05-18T01:38:40.601Z,9.719378
2023-05-18T01:39:39.311Z,9.719339
2023-05-18T01:40:39.305Z,9.719275
2023-05-18T01:41:39.290Z,9.719221
2023-05-18T01:42:39.281Z,9.719277
2023-05-18T01:43:39.274Z,9.719362
2023-05-18T01:44:39.257Z,9.719343
2023-05-18T01:45:39.255Z,9.719355
2023-05-18T01:46:39.314Z,9.719387
2023-05-18T01:47:39.284Z,9.719348
2023-05-18T01:48:39.216Z,9.719271
2023-05-18T01:49:39.228Z,9.719346
2023-05-18T01:50:39.193Z,9.719321
2023-05-18T01:51:39.205Z,9.719353
2023-05-18T01:52:39.194Z,9.719350
2023-05-18T01:53:39.169Z,9.719446
2023-05-18T01:54:39.160Z,9.719438
2023-05-18T01:55:39.135Z,9.719395
2023-05-18T01:56:40.133Z,9.719376
2023-05-18T01:57:39.155Z,9.719260
2023-05-18T01:58:39.149Z,9.719437
2023-05-18T01:59:39.115Z,9.719316
2023-05-18T02:00:39.105Z,9.719426
2023-05-18T02:01:39.162Z,9.719452
2023-05-18T02:02:39.308Z,9.719346
2023-05-18T02:03:39.273Z,9.719298
2023-05-18T02:04:39.054Z,9.719281
2023-05-18T02:05:39.055Z,9.719241
2023-05-18T02:06:39.057Z,9.719151
2023-05-18T02:07:39.038Z,9.719201
2023-05-18T02:08:39.058Z,9.719263
2023-05-18T02:09:39.040Z,9.719206
2023-05-18T02:10:39.040Z,9.719222
2023-05-18T02:11:38.993Z,9.719195
2023-05-18T02:12:38.994Z,9.719172
2023-05-18T02:13:38.973Z,9.719180
2023-05-18T02:14:38.958Z,9.719189
2023-05-18T02:15:38.981Z,9.719198
2023-05-18T02:16:39.056Z,9.719219
2023-05-18T02:17:39.094Z,9.719199
2023-05-18T02:18:38.966Z,9.719184
2023-05-18T02:19:38.968Z,9.719150
2023-05-18T02:20:38.898Z,9.719207
2023-05-18T02:21:39.904Z,9.719240
2023-05-18T02:22:38.898Z,9.719216
2023-05-18T02:23:38.883Z,9.719195
2023-05-18T02:24:38.880Z,9.719211
2023-05-18T02:25:38.861Z,9.719221
2023-05-18T02:26:38.852Z,9.719225
2023-05-18T02:27:38.845Z,9.719217
2023-05-18T02:28:38.844Z,9.719202
2023-05-18T02:29:38.809Z,9.719217
2023-05-18T02:30:38.804Z,9.719177
2023-05-18T02:31:38.895Z,9.719117
2023-05-18T02:32:38.982Z,9.719154
2023-05-18T02:33:38.817Z,9.719164
2023-05-18T02:34:38.771Z,9.719139
2023-05-18T02:35:38.754Z,9.719172
2023-05-18T02:36:38.806Z,9.719124
2023-05-18T02:37:38.734Z,9.719178
2023-05-18T02:38:38.727Z,9.719140
2023-05-18T02:39:38.749Z,9.719188
2023-05-18T02:40:38.712Z,9.719204
2023-05-18T02:41:38.699Z,9.719243
2023-05-18T02:42:38.700Z,9.719198
2023-05-18T02:43:38.703Z,9.719189
2023-05-18T02:44:38.683Z,9.719222
2023-05-18T02:45:38.714Z,9.719149
2023-05-18T02:46:38.699Z,9.719095
2023-05-18T02:47:38.770Z,9.718965
2023-05-18T02:48:38.631Z,9.719072
2023-05-18T02:49:38.641Z,9.718725
2023-05-18T02:50:38.630Z,9.718920
2023-05-18T02:51:38.616Z,9.718865
2023-05-18T02:52:38.589Z,9.718731
2023-05-18T02:53:38.583Z,9.719203
2023-05-18T02:54:38.578Z,9.719265
2023-05-18T02:55:38.583Z,9.719227
2023-05-18T02:56:38.560Z,9.719284
2023-05-18T02:57:38.555Z,9.719447
2023-05-18T02:58:38.561Z,9.719375
2023-05-18T02:59:38.542Z,9.719425
2023-05-18T03:00:38.528Z,9.719438
2023-05-18T03:01:38.514Z,9.719232
2023-05-18T03:02:38.644Z,9.719187
2023-05-18T03:03:38.565Z,9.718987
2023-05-18T03:04:38.481Z,9.719355
2023-05-18T03:05:38.470Z,9.719505
2023-05-18T03:06:38.518Z,9.719298
2023-05-18T03:07:38.461Z,9.719230
2023-05-18T03:08:38.435Z,9.719168
2023-05-18T03:09:38.425Z,9.719083
2023-05-18T03:10:38.418Z,9.719297
2023-05-18T03:11:38.438Z,9.719413
2023-05-18T03:12:38.399Z,9.719062
2023-05-18T03:13:38.436Z,9.719293
2023-05-18T03:14:38.371Z,9.719239
2023-05-18T03:15:38.369Z,9.719203
2023-05-18T03:16:38.397Z,9.719205
2023-05-18T03:17:38.394Z,9.719180
2023-05-18T03:18:38.366Z,9.719289
2023-05-18T03:19:38.355Z,9.719226
2023-05-18T03:20:38.332Z,9.719259
2023-05-18T03:21:38.328Z,9.719136
2023-05-18T03:22:38.307Z,9.719200
2023-05-18T03:23:38.290Z,9.719172
2023-05-18T03:24:38.289Z,9.719167
2023-05-18T03:25:38.290Z,9.719112
2023-05-18T03:26:38.277Z,9.719077
2023-05-18T03:27:38.264Z,9.719179
2023-05-18T03:28:38.267Z,9.719190
2023-05-18T03:29:38.244Z,9.719205
2023-05-18T03:30:38.220Z,9.719200
2023-05-18T03:31:38.247Z,9.719173
2023-05-18T03:32:38.331Z,9.719210
2023-05-18T03:33:38.237Z,9.719221
2023-05-18T03:34:38.232Z,9.719208
2023-05-18T03:35:38.204Z,9.719201
2023-05-18T03:36:38.186Z,9.719099
2023-05-18T03:37:38.154Z,9.719113
2023-05-18T03:38:38.135Z,9.719110
2023-05-18T03:39:38.156Z,9.719246
2023-05-18T03:40:38.193Z,9.719260
2023-05-18T03:41:38.135Z,9.719297
2023-05-18T03:42:38.117Z,9.719273
2023-05-18T03:43:38.116Z,9.719212
2023-05-18T03:44:38.083Z,9.719267
2023-05-18T03:45:38.134Z,9.719217
2023-05-18T03:46:38.113Z,9.719275
2023-05-18T03:47:38.107Z,9.719276
2023-05-18T03:48:38.055Z,9.719237
2023-05-18T03:49:38.071Z,9.719219
2023-05-18T03:50:38.039Z,9.719272
2023-05-18T03:51:38.037Z,9.719276
2023-05-18T03:52:38.026Z,9.719176
2023-05-18T03:53:38.013Z,9.719255
2023-05-18T03:54:37.998Z,9.719231
2023-05-18T03:55:38.008Z,9.719274
2023-05-18T03:56:37.994Z,9.719301
2023-05-18T03:57:37.972Z,9.719386
2023-05-18T03:58:37.968Z,9.719347
2023-05-18T03:59:37.950Z,9.719258
2023-05-18T04:00:37.985Z,9.719292
2023-05-18T04:01:37.981Z,9.719230
2023-05-18T04:02:38.030Z,9.719243
2023-05-18T04:03:38.005Z,9.719327
2023-05-18T04:04:37.916Z,9.719295
2023-05-18T04:05:37.903Z,9.719212
2023-05-18T04:06:37.894Z,9.719354
2023-05-18T04:07:37.906Z,9.719382
2023-05-18T04:08:37.887Z,9.719498
2023-05-18T04:09:37.849Z,9.719318
2023-05-18T04:10:37.840Z,9.719393
2023-05-18T04:11:37.848Z,9.719394
2023-05-18T04:12:37.836Z,9.719414
2023-05-18T04:13:37.837Z,9.719433
2023-05-18T04:14:37.800Z,9.719434
2023-05-18T04:15:37.814Z,9.719414
2023-05-18T04:16:37.831Z,9.719534
2023-05-18T04:17:37.792Z,9.719482
2023-05-18T04:18:37.808Z,9.719489
2023-05-18T04:19:37.968Z,9.719515
2023-05-18T04:20:37.737Z,9.719436
2023-05-18T04:21:37.748Z,9.719399
2023-05-18T04:22:37.741Z,9.719491
2023-05-18T04:23:37.711Z,9.719433
2023-05-18T04:24:37.712Z,9.719667
2023-05-18T04:25:37.707Z,9.719523
2023-05-18T04:26:37.677Z,9.719511
2023-05-18T04:27:37.703Z,9.719396
2023-05-18T04:28:37.800Z,9.719445
2023-05-18T04:29:37.664Z,9.719264
2023-05-18T04:30:37.679Z,9.719236
2023-05-18T04:31:37.700Z,9.719307
2023-05-18T04:32:37.669Z,9.719548
2023-05-18T04:33:37.627Z,9.719401
2023-05-18T04:34:37.652Z,9.719098
2023-05-18T04:35:37.636Z,9.719151
2023-05-18T04:36:37.592Z,9.719342
2023-05-18T04:37:37.584Z,9.719431
2023-05-18T04:38:37.594Z,9.719300
2023-05-18T04:39:37.560Z,9.719248
2023-05-18T04:40:37.573Z,9.719440
2023-05-18T04:41:37.542Z,9.719677
2023-05-18T04:42:37.535Z,9.719575
2023-05-18T04:43:37.533Z,9.719522
2023-05-18T04:44:37.542Z,9.719559
2023-05-18T04:45:37.537Z,9.719364
2023-05-18T04:46:37.513Z,9.719160
2023-05-18T04:47:37.491Z,9.719325
2023-05-18T04:48:37.493Z,9.719417
2023-05-18T04:50:03.428Z,9.719173
2023-05-18T04:50:37.476Z,9.719364
2023-05-18T04:51:37.475Z,9.719412
2023-05-18T04:52:37.462Z,9.719095
2023-05-18T04:53:37.460Z,9.719320
2023-05-18T04:54:37.431Z,9.719198
2023-05-18T04:55:37.441Z,9.719439
2023-05-18T04:56:37.421Z,9.719439
2023-05-18T04:57:37.412Z,9.719439
2023-05-18T04:58:37.395Z,9.719439
2023-05-18T04:59:37.492Z,9.719439
2023-05-18T05:00:37.375Z,9.719439
2023-05-18T05:01:37.376Z,9.719439
2023-05-18T05:02:37.377Z,9.719439
2023-05-18T05:03:37.478Z,9.719439
2023-05-18T05:04:37.362Z,9.719439
2023-05-18T05:05:37.339Z,9.719737
2023-05-18T05:06:37.331Z,9.719575
2023-05-18T05:07:37.337Z,9.719348
2023-05-18T05:08:37.297Z,9.719412
2023-05-18T05:09:37.282Z,9.719331
2023-05-18T05:10:37.312Z,9.719327
2023-05-18T05:11:37.255Z,9.719313
2023-05-18T05:12:37.300Z,9.719439
2023-05-18T05:13:37.244Z,9.719341
2023-05-18T05:14:37.215Z,9.719284
2023-05-18T05:15:37.259Z,9.719217
2023-05-18T05:16:37.206Z,9.719200
2023-05-18T05:17:37.257Z,9.719303
2023-05-18T05:18:37.241Z,9.719345
2023-05-18T05:19:37.189Z,9.719280
2023-05-18T05:20:37.166Z,9.719254
2023-05-18T05:21:37.168Z,9.719312
2023-05-18T05:22:37.181Z,9.719266
2023-05-18T05:23:37.191Z,9.719197
2023-05-18T05:24:37.160Z,9.719153
2023-05-18T05:25:37.128Z,9.719172
2023-05-18T05:26:37.125Z,9.719191
2023-05-18T05:27:37.094Z,9.719182
2023-05-18T05:28:37.085Z,9.719103
2023-05-18T05:29:37.109Z,9.719132
2023-05-18T05:30:37.093Z,9.719117
2023-05-18T05:31:38.149Z,9.719128
2023-05-18T05:32:37.195Z,9.719212
2023-05-18T05:33:37.056Z,9.719131
2023-05-18T05:34:37.055Z,9.719204
2023-05-18T05:35:37.419Z,9.719101
2023-05-18T05:36:37.010Z,9.719011
2023-05-18T05:37:37.000Z,9.718944
2023-05-18T05:38:36.985Z,9.719010
2023-05-18T05:39:36.974Z,9.719103
2023-05-18T05:40:36.979Z,9.719149
2023-05-18T05:41:36.961Z,9.719170
2023-05-18T05:42:36.949Z,9.719156
2023-05-18T05:43:36.934Z,9.719130
2023-05-18T05:44:36.922Z,9.719137
2023-05-18T05:45:36.952Z,9.719172
2023-05-18T05:46:36.978Z,9.718981
2023-05-18T05:47:36.912Z,9.719102
2023-05-18T05:48:36.883Z,9.719147
2023-05-18T05:49:36.868Z,9.719200
2023-05-18T05:50:37.077Z,9.719153
2023-05-18T05:51:36.882Z,9.719131
2023-05-18T05:52:36.864Z,9.719061
2023-05-18T05:53:36.828Z,9.719099
2023-05-18T05:54:36.828Z,9.719110
2023-05-18T05:55:36.804Z,9.719059
2023-05-18T05:56:36.799Z,9.719028
2023-05-18T05:57:36.806Z,9.719111
2023-05-18T05:58:36.772Z,9.719181
2023-05-18T05:59:37.784Z,9.719142
2023-05-18T06:00:36.829Z,9.719113
2023-05-18T06:01:36.786Z,9.719150
2023-05-18T06:02:36.903Z,9.719114
2023-05-18T06:03:36.785Z,9.719166
2023-05-18T06:04:36.837Z,9.719169
2023-05-18T06:05:36.714Z,9.719178
2023-05-18T06:06:36.725Z,9.719262
2023-05-18T06:07:36.699Z,9.719168
2023-05-18T06:08:36.697Z,9.719120
2023-05-18T06:09:36.681Z,9.718887
2023-05-18T06:10:36.700Z,9.719115
2023-05-18T06:11:36.682Z,9.719122
2023-05-18T06:12:36.692Z,9.719165
2023-05-18T06:13:36.642Z,9.719165
2023-05-18T06:14:36.677Z,9.719273
2023-05-18T06:15:36.609Z,9.719283
2023-05-18T06:16:37.671Z,9.719189
2023-05-18T06:17:36.618Z,9.719222
2023-05-18T06:18:36.737Z,9.719152
2023-05-18T06:19:36.586Z,9.719009
2023-05-18T06:20:36.580Z,9.719246
2023-05-18T06:21:36.561Z,9.719225
2023-05-18T06:22:36.591Z,9.719430
2023-05-18T06:23:36.866Z,9.719566
2023-05-18T06:24:36.532Z,9.719302
2023-05-18T06:25:36.536Z,9.719361
2023-05-18T06:26:36.502Z,9.719119
2023-05-18T06:27:36.507Z,9.719574
2023-05-18T06:28:36.502Z,9.719611
2023-05-18T06:29:36.493Z,9.719468
2023-05-18T06:30:36.463Z,9.719554
2023-05-18T06:31:36.538Z,9.719398
2023-05-18T06:32:36.468Z,9.719261
2023-05-18T06:33:36.526Z,9.719107
2023-05-18T06:34:36.432Z,9.718988
2023-05-18T06:35:36.420Z,9.718832
2023-05-18T06:36:36.432Z,9.718809
2023-05-18T06:37:36.400Z,9.718994
2023-05-18T06:38:36.392Z,9.718950
2023-05-18T06:39:36.433Z,9.718788
2023-05-18T06:40:36.375Z,9.719273
2023-05-18T06:41:36.391Z,9.719184
2023-05-18T06:42:36.392Z,9.718955
2023-05-18T06:43:36.353Z,9.718927
2023-05-18T06:44:36.358Z,9.718700
2023-05-18T06:45:37.499Z,9.719101
2023-05-18T06:46:37.418Z,9.719131
2023-05-18T06:47:36.309Z,9.719103
2023-05-18T06:48:36.306Z,9.719078
2023-05-18T06:49:36.312Z,9.719035
2023-05-18T06:50:36.359Z,9.719210
2023-05-18T06:51:36.268Z,9.719124
2023-05-18T06:52:36.268Z,9.719010
2023-05-18T06:53:36.267Z,9.719254
2023-05-18T06:54:36.254Z,9.719253
2023-05-18T06:55:36.233Z,9.719009
2023-05-18T06:56:36.226Z,9.719006
2023-05-18T06:57:36.252Z,9.719122
2023-05-18T06:58:36.207Z,9.719202
2023-05-18T06:59:36.190Z,9.719074
2023-05-18T07:00:36.203Z,9.718943
2023-05-18T07:01:36.203Z,9.719074
2023-05-18T07:02:36.195Z,9.719059
2023-05-18T07:03:36.220Z,9.719152
2023-05-18T07:04:36.155Z,9.719146
2023-05-18T07:05:38.601Z,9.718974
2023-05-18T07:06:37.133Z,9.719071
2023-05-18T07:07:36.144Z,9.719033
2023-05-18T07:08:36.120Z,9.719177
2023-05-18T07:09:36.116Z,9.719330
2023-05-18T07:10:36.093Z,9.719198
2023-05-18T07:11:36.091Z,9.718998
2023-05-18T07:12:36.058Z,9.718974
2023-05-18T07:13:36.048Z,9.718880
2023-05-18T07:14:36.069Z,9.718909
2023-05-18T07:15:36.059Z,9.719096
2023-05-18T07:16:36.049Z,9.719193
2023-05-18T07:17:36.050Z,9.719269
2023-05-18T07:18:36.057Z,9.719112
2023-05-18T07:19:36.038Z,9.719068
2023-05-18T07:20:35.993Z,9.719151
2023-05-18T07:21:35.971Z,9.719215
2023-05-18T07:22:35.965Z,9.719151
2023-05-18T07:23:35.967Z,9.719182
2023-05-18T07:24:35.975Z,9.719206
2023-05-18T07:25:35.930Z,9.719204
2023-05-18T07:26:35.937Z,9.719152
2023-05-18T07:27:35.908Z,9.719604
2023-05-18T07:28:35.907Z,9.719292
2023-05-18T07:29:35.936Z,9.719514
2023-05-18T07:30:35.903Z,9.719365
2023-05-18T07:31:35.880Z,9.718639
2023-05-18T07:32:35.900Z,9.718408
2023-05-18T07:33:35.860Z,9.718805
2023-05-18T07:34:35.895Z,9.719140
2023-05-18T07:35:35.853Z,9.719304
2023-05-18T07:36:35.873Z,9.719323
2023-05-18T07:37:35.824Z,9.719071
2023-05-18T07:38:35.821Z,9.719189
2023-05-18T07:39:35.810Z,9.719403
2023-05-18T07:40:35.839Z,9.719878
2023-05-18T07:41:35.808Z,9.719679
2023-05-18T07:42:35.768Z,9.719790
2023-05-18T07:43:35.758Z,9.720069
2023-05-18T07:44:35.809Z,9.720243
2023-05-18T07:45:35.749Z,9.719741
2023-05-18T07:46:35.767Z,9.719398
2023-05-18T07:47:35.759Z,9.719240
2023-05-18T07:48:35.736Z,9.719240
2023-05-18T07:49:35.719Z,9.719294
2023-05-18T07:50:35.737Z,9.719303
2023-05-18T07:51:35.695Z,9.719257
2023-05-18T07:52:35.681Z,9.719138
2023-05-18T07:53:35.760Z,9.719168
2023-05-18T07:54:35.761Z,9.719054
2023-05-18T07:55:35.650Z,9.719322
2023-05-18T07:56:35.663Z,9.719322
2023-05-18T07:57:35.635Z,9.719322
2023-05-18T07:58:35.724Z,9.719322
2023-05-18T07:59:35.615Z,9.719322
2023-05-18T08:00:35.600Z,9.719322
2023-05-18T08:01:35.647Z,9.719124
2023-05-18T08:02:35.660Z,9.719154
2023-05-18T08:03:35.659Z,9.719145
2023-05-18T08:04:35.578Z,9.719145
2023-05-18T08:05:35.556Z,9.719178
2023-05-18T08:06:35.553Z,9.719096
2023-05-18T08:07:35.548Z,9.719114
2023-05-18T08:08:35.541Z,9.719114
2023-05-18T08:09:35.522Z,9.719114
2023-05-18T08:10:35.527Z,9.719144
2023-05-18T08:11:35.497Z,9.719051
2023-05-18T08:12:35.490Z,9.719039
2023-05-18T08:13:35.565Z,9.719032
2023-05-18T08:14:35.481Z,9.718942
2023-05-18T08:15:35.581Z,9.718872
2023-05-18T08:16:35.440Z,9.718845
2023-05-18T08:17:35.496Z,9.718907
2023-05-18T08:18:35.458Z,9.718999
2023-05-18T08:19:35.422Z,9.718994
2023-05-18T08:20:35.470Z,9.719037
2023-05-18T08:21:35.404Z,9.718917
2023-05-18T08:22:35.395Z,9.719139
2023-05-18T08:23:35.381Z,9.719043
2023-05-18T08:24:35.381Z,9.719118
2023-05-18T08:25:35.358Z,9.719122
2023-05-18T08:26:35.394Z,9.719301
2023-05-18T08:27:35.338Z,9.719313
2023-05-18T08:28:35.368Z,9.719368
2023-05-18T08:29:35.338Z,9.719496
2023-05-18T08:30:35.356Z,9.719405
2023-05-18T08:31:35.344Z,9.719431
2023-05-18T08:32:35.324Z,9.719390
2023-05-18T08:33:35.293Z,9.719343
2023-05-18T08:34:35.267Z,9.719272
2023-05-18T08:35:35.249Z,9.719312
2023-05-18T08:36:35.267Z,9.719339
2023-05-18T08:37:35.255Z,9.719365
2023-05-18T08:38:35.257Z,9.719440
2023-05-18T08:39:35.231Z,9.719434
2023-05-18T08:40:35.217Z,9.719376
2023-05-18T08:41:35.204Z,9.719396
2023-05-18T08:42:48.632Z,9.719358
2023-05-18T08:43:37.216Z,9.719336
2023-05-18T08:44:35.167Z,9.719321
2023-05-18T08:45:35.195Z,9.719337
2023-05-18T08:46:35.155Z,9.719336
2023-05-18T08:47:35.189Z,9.719325
2023-05-18T08:48:35.208Z,9.719311
2023-05-18T08:49:35.133Z,9.719368
2023-05-18T08:50:35.152Z,9.719341
2023-05-18T08:51:35.095Z,9.719372
2023-05-18T08:52:35.085Z,9.719328
2023-05-18T08:53:35.087Z,9.719416
2023-05-18T08:54:35.074Z,9.719398
2023-05-18T08:55:35.054Z,9.719349
2023-05-18T08:56:36.116Z,9.719245
2023-05-18T08:57:35.036Z,9.719322
2023-05-18T08:58:35.050Z,9.719398
2023-05-18T08:59:35.043Z,9.719462
2023-05-18T09:00:35.345Z,9.719337
2023-05-18T09:01:35.082Z,9.719317
2023-05-18T09:02:35.050Z,9.719196
2023-05-18T09:03:34.996Z,9.719249
2023-05-18T09:04:35.029Z,9.719224
2023-05-18T09:05:35.278Z,9.719294
2023-05-18T09:06:34.999Z,9.719260
2023-05-18T09:07:34.960Z,9.719219
2023-05-18T09:08:34.931Z,9.719233
2023-05-18T09:09:34.931Z,9.719173
2023-05-18T09:10:34.917Z,9.719235
2023-05-18T09:11:34.899Z,9.719300
2023-05-18T09:12:34.900Z,9.719192
2023-05-18T09:13:34.892Z,9.719099
2023-05-18T09:14:34.880Z,9.718940
2023-05-18T09:15:34.848Z,9.718997
2023-05-18T09:16:34.984Z,9.719134
2023-05-18T09:17:34.879Z,9.719074
2023-05-18T09:18:34.860Z,9.719017
2023-05-18T09:19:34.841Z,9.719037
2023-05-18T09:20:34.845Z,9.719041
2023-05-18T09:21:34.806Z,9.719056
2023-05-18T09:22:34.803Z,9.719112
2023-05-18T09:23:34.802Z,9.719086
2023-05-18T09:24:34.805Z,9.719026
2023-05-18T09:25:34.774Z,9.719030
2023-05-18T09:26:34.744Z,9.718970
2023-05-18T09:27:34.739Z,9.718967
2023-05-18T09:28:34.755Z,9.719145
2023-05-18T09:29:34.728Z,9.719139
2023-05-18T09:30:34.784Z,9.719194
2023-05-18T09:31:34.754Z,9.719193
2023-05-18T09:32:34.758Z,9.719213
2023-05-18T09:33:34.746Z,9.719106
2023-05-18T09:34:34.681Z,9.718983
2023-05-18T09:35:34.953Z,9.719151
2023-05-18T09:36:34.713Z,9.719174
2023-05-18T09:37:34.642Z,9.719131
2023-05-18T09:38:34.642Z,9.719097
2023-05-18T09:39:34.627Z,9.719112
2023-05-18T09:40:34.672Z,9.719134
2023-05-18T09:41:34.598Z,9.719095
2023-05-18T09:42:34.609Z,9.719287
2023-05-18T09:43:34.600Z,9.719312
2023-05-18T09:44:34.587Z,9.719337
2023-05-18T09:45:34.597Z,9.719389
2023-05-18T09:46:34.608Z,9.719366
2023-05-18T09:47:34.587Z,9.719269
2023-05-18T09:48:34.542Z,9.719332
2023-05-18T09:49:34.550Z,9.719321
2023-05-18T09:50:34.526Z,9.719277
2023-05-18T09:51:34.521Z,9.719323
2023-05-18T09:52:34.512Z,9.719431
2023-05-18T09:53:34.508Z,9.719401
2023-05-18T09:54:34.513Z,9.719398
2023-05-18T09:55:34.501Z,9.719524
2023-05-18T09:56:34.469Z,9.719334
2023-05-18T09:57:34.469Z,9.719370
2023-05-18T09:58:34.482Z,9.719373
2023-05-18T09:59:34.444Z,9.719401
2023-05-18T10:00:34.513Z,9.719303
2023-05-18T10:01:34.469Z,9.719371
2023-05-18T10:02:34.483Z,9.719285
2023-05-18T10:03:34.452Z,9.719306
2023-05-18T10:04:34.421Z,9.719312
2023-05-18T10:05:36.123Z,9.719380
2023-05-18T10:06:35.403Z,9.719266
2023-05-18T10:07:34.411Z,9.719312
2023-05-18T10:08:34.376Z,9.719354
2023-05-18T10:09:34.339Z,9.719351
2023-05-18T10:10:34.370Z,9.719340
2023-05-18T10:11:34.412Z,9.719377
2023-05-18T10:12:34.329Z,9.719373
2023-05-18T10:13:34.336Z,9.719427
2023-05-18T10:14:34.300Z,9.719499
2023-05-18T10:15:34.308Z,9.719493
2023-05-18T10:16:34.334Z,9.719362
2023-05-18T10:17:34.416Z,9.719416
2023-05-18T10:18:34.279Z,9.719515
2023-05-18T10:19:34.263Z,9.719383
2023-05-18T10:20:34.277Z,9.719346
2023-05-18T10:21:34.248Z,9.719384
2023-05-18T10:22:34.243Z,9.719370
2023-05-18T10:23:34.345Z,9.719301
2023-05-18T10:24:34.234Z,9.719329
2023-05-18T10:25:34.215Z,9.719250
2023-05-18T10:26:34.209Z,9.719380
2023-05-18T10:27:34.179Z,9.719258
2023-05-18T10:28:35.213Z,9.719497
2023-05-18T10:29:34.206Z,9.719490
2023-05-18T10:30:34.285Z,9.719278
2023-05-18T10:31:34.265Z,9.719228
2023-05-18T10:32:34.149Z,9.719255
2023-05-18T10:33:34.236Z,9.719371
2023-05-18T10:34:34.103Z,9.719240
2023-05-18T10:35:34.146Z,9.719318
2023-05-18T10:36:34.096Z,9.719041
2023-05-18T10:37:34.067Z,9.719155
2023-05-18T10:38:34.080Z,9.719405
2023-05-18T10:39:34.070Z,9.719247
2023-05-18T10:40:34.109Z,9.719347
2023-05-18T10:41:34.042Z,9.719292
2023-05-18T10:42:34.053Z,9.719437
2023-05-18T10:43:34.024Z,9.719266
2023-05-18T10:44:34.020Z,9.718396
2023-05-18T10:45:34.014Z,9.718358
2023-05-18T10:46:34.229Z,9.719108
2023-05-18T10:47:34.220Z,9.719212
2023-05-18T10:48:33.993Z,9.719287
2023-05-18T10:49:33.975Z,9.719185
2023-05-18T10:51:05.864Z,9.719189
2023-05-18T10:51:34.602Z,9.719095
2023-05-18T10:52:33.983Z,9.719132
2023-05-18T10:53:33.931Z,9.719111
2023-05-18T10:54:33.914Z,9.719107
2023-05-18T10:55:33.925Z,9.719168
2023-05-18T10:56:33.905Z,9.719121
2023-05-18T10:57:33.917Z,9.719136
2023-05-18T10:58:33.869Z,9.718960
2023-05-18T10:59:33.873Z,9.719089
2023-05-18T11:00:33.899Z,9.718960
2023-05-18T11:01:33.908Z,9.718969
2023-05-18T11:02:33.842Z,9.719047
2023-05-18T11:03:33.856Z,9.719094
2023-05-18T11:04:33.875Z,9.719080
2023-05-18T11:05:33.805Z,9.719129
2023-05-18T11:06:33.779Z,9.719114
2023-05-18T11:07:33.800Z,9.719132
2023-05-18T11:08:33.787Z,9.719084
2023-05-18T11:09:33.782Z,9.719111
2023-05-18T11:10:33.747Z,9.719055
2023-05-18T11:11:33.753Z,9.719023
2023-05-18T11:12:33.750Z,9.719061
2023-05-18T11:13:33.733Z,9.719085
2023-05-18T11:14:33.765Z,9.719171
2023-05-18T11:15:33.712Z,9.719125
2023-05-18T11:16:33.757Z,9.719110
2023-05-18T11:17:33.737Z,9.719042
2023-05-18T11:18:33.714Z,9.719073
2023-05-18T11:19:33.653Z,9.719037
2023-05-18T11:20:33.669Z,9.719109
2023-05-18T11:21:33.636Z,9.719072
2023-05-18T11:22:33.643Z,9.719098
2023-05-18T11:23:33.626Z,9.719106
2023-05-18T11:24:33.625Z,9.718532
2023-05-18T11:25:33.627Z,9.718454
2023-05-18T11:26:33.607Z,9.718739
2023-05-18T11:27:33.657Z,9.718832
2023-05-18T11:28:33.577Z,9.718796
2023-05-18T11:29:33.603Z,9.718639
2023-05-18T11:30:33.804Z,9.718446
2023-05-18T11:31:33.580Z,9.718751
2023-05-18T11:32:33.668Z,9.718775
2023-05-18T11:33:33.589Z,9.718546
2023-05-18T11:34:33.526Z,9.718899
2023-05-18T11:35:33.498Z,9.719348
2023-05-18T11:36:33.489Z,9.719015
2023-05-18T11:37:33.510Z,9.719101
2023-05-18T11:38:33.475Z,9.719235
2023-05-18T11:39:34.764Z,9.719261
2023-05-18T11:40:33.493Z,9.718975
2023-05-18T11:41:33.449Z,9.719355
2023-05-18T11:42:33.497Z,9.719976
2023-05-18T11:43:33.426Z,9.719352
2023-05-18T11:44:34.426Z,9.719014